createdAt,value
2023-12-11T00:03:28.516Z,7.82
2023-12-11T00:08:32.403Z,11.23
2023-12-11T00:13:36.002Z,8.70
2023-12-11T00:18:41.024Z,8.25
2023-12-11T00:23:44.832Z,10.13
2023-12-11T00:28:48.658Z,9.32
2023-12-11T00:33:53.768Z,8.18
2023-12-11T00:38:57.366Z,8.23
2023-12-11T00:44:03.289Z,9.18
2023-12-11T00:49:08.210Z,8.18
2023-12-11T00:54:11.814Z,8.80
2023-12-11T00:59:15.420Z,10.73
2023-12-11T01:04:20.587Z,7.57
2023-12-11T01:09:24.134Z,8.93
2023-12-11T01:14:27.787Z,8.32
2023-12-11T01:19:32.824Z,7.63
2023-12-11T01:24:36.416Z,9.23
2023-12-11T01:29:39.930Z,8.15
2023-12-11T01:34:44.885Z,7.72
2023-12-11T01:39:48.478Z,9.38
2023-12-11T01:44:52.197Z,6.63
2023-12-11T01:49:57.265Z,9.02
2023-12-11T01:55:00.953Z,8.68
2023-12-11T02:00:06.823Z,6.80
2023-12-11T02:05:12.614Z,8.48
2023-12-11T02:10:17.016Z,7.30
2023-12-11T02:15:42.708Z,7.18
2023-12-11T02:20:48.045Z,9.50
2023-12-11T02:26:09.256Z,9.27
2023-12-11T02:31:13.649Z,8.52
2023-12-11T02:36:17.288Z,10.20
2023-12-11T02:41:22.204Z,7.82
2023-12-11T02:46:25.770Z,7.25
2023-12-11T02:51:29.317Z,8.90
2023-12-11T02:56:34.275Z,8.43
2023-12-11T03:01:40.855Z,6.78
2023-12-11T03:06:44.475Z,10.23
2023-12-11T03:11:49.383Z,7.22
2023-12-11T03:16:55.869Z,8.45
2023-12-11T03:21:59.376Z,8.27
2023-12-11T03:27:05.879Z,9.43
2023-12-11T03:32:09.655Z,10.18
2023-12-11T03:37:13.292Z,7.00
2023-12-11T03:42:18.193Z,9.35
2023-12-11T03:47:22.614Z,6.72
2023-12-11T03:52:26.162Z,7.53
2023-12-11T03:57:31.337Z,8.02
2023-12-11T04:02:35.167Z,11.95
2023-12-11T04:07:38.783Z,8.45
2023-12-11T04:12:45.072Z,9.52
2023-12-11T04:17:48.667Z,7.65
2023-12-11T04:22:52.225Z,9.45
2023-12-11T04:27:57.170Z,6.47
2023-12-11T04:33:00.799Z,6.70
2023-12-11T04:38:04.345Z,10.02
2023-12-11T04:43:09.383Z,12.73
2023-12-11T04:48:13.117Z,7.00
2023-12-11T04:53:16.767Z,8.93
2023-12-11T04:58:21.919Z,9.38
2023-12-11T05:03:25.426Z,7.18
2023-12-11T05:08:30.649Z,11.00
2023-12-11T05:13:35.729Z,9.90
2023-12-11T05:18:40.414Z,6.32
2023-12-11T05:23:44.132Z,8.57
2023-12-11T05:28:49.537Z,7.93
2023-12-11T05:33:53.242Z,7.53
2023-12-11T05:38:57.341Z,11.35
2023-12-11T05:44:02.323Z,6.90
2023-12-11T05:49:08.859Z,9.38
2023-12-11T05:54:12.424Z,12.30
2023-12-11T05:59:17.338Z,10.40
2023-12-11T06:04:20.929Z,12.52
2023-12-11T06:09:24.506Z,10.05
2023-12-11T06:14:29.376Z,9.68
2023-12-11T06:19:32.904Z,9.07
2023-12-11T06:24:38.601Z,8.52
2023-12-11T06:29:43.617Z,7.20
2023-12-11T06:34:47.263Z,7.93
2023-12-11T06:39:50.891Z,10.98
2023-12-11T06:44:55.819Z,9.02
2023-12-11T06:49:59.548Z,6.30
2023-12-11T06:55:03.822Z,6.38
2023-12-11T07:00:11.916Z,6.90
2023-12-11T07:05:15.663Z,8.30
2023-12-11T07:10:19.382Z,8.32
2023-12-11T07:15:24.269Z,8.40
2023-12-11T07:20:28.518Z,7.43
2023-12-11T07:25:33.017Z,9.07
2023-12-11T07:37:02.500Z,7.68
2023-12-11T07:42:07.834Z,7.70
2023-12-11T07:47:12.759Z,6.97
2023-12-11T07:52:16.526Z,9.73
2023-12-11T07:57:20.191Z,6.90
2023-12-11T08:02:25.252Z,6.07
2023-12-11T08:07:29.109Z,8.93
2023-12-11T08:12:33.092Z,9.57
2023-12-11T08:17:38.091Z,7.28
2023-12-11T08:22:41.733Z,9.07
2023-12-11T08:27:45.360Z,7.65
2023-12-11T08:32:50.338Z,7.63
2023-12-11T08:37:53.913Z,6.57
2023-12-11T08:42:57.497Z,8.38
2023-12-11T08:48:02.627Z,6.70
2023-12-11T08:53:06.707Z,8.23
2023-12-11T08:58:10.332Z,7.35
2023-12-11T09:03:15.271Z,8.77
2023-12-11T09:08:18.780Z,9.20
2023-12-11T09:13:22.969Z,8.07
2023-12-11T09:18:28.612Z,8.75
2023-12-11T09:23:32.234Z,8.02
2023-12-11T09:28:41.873Z,10.68
2023-12-11T09:33:53.459Z,20.30
2023-12-11T09:38:59.574Z,13.80
2023-12-11T09:44:03.475Z,19.38
2023-12-11T09:49:09.649Z,17.30
2023-12-11T09:54:14.352Z,19.25
2023-12-11T10:00:17.476Z,19.35
2023-12-11T10:05:28.268Z,30.00
2023-12-11T10:10:35.249Z,25.95
2023-12-11T10:15:39.453Z,20.93
2023-12-11T10:20:46.433Z,17.48
2023-12-11T10:25:53.023Z,19.23
2023-12-11T10:31:00.482Z,21.45
2023-12-11T10:36:17.106Z,20.13
2023-12-11T10:41:27.961Z,17.00
2023-12-11T10:46:32.391Z,12.52
2023-12-11T10:51:38.427Z,19.88
2023-12-11T10:56:45.630Z,13.55
2023-12-11T11:01:51.545Z,16.53
2023-12-11T11:07:02.677Z,16.30
2023-12-11T11:12:15.037Z,12.82
2023-12-11T11:17:18.768Z,15.00
2023-12-11T11:22:31.588Z,12.77
2023-12-11T11:27:43.787Z,11.50
2023-12-11T11:32:57.191Z,11.13
2023-12-11T11:38:02.008Z,13.20
2023-12-11T11:43:06.295Z,15.65
2023-12-11T11:48:09.792Z,14.05
2023-12-11T11:53:16.314Z,33.35
2023-12-11T11:58:19.859Z,35.95
2023-12-11T12:03:23.312Z,28.80
2023-12-11T12:08:28.372Z,25.13
2023-12-11T12:13:35.762Z,28.35
2023-12-11T12:18:51.202Z,27.75
2023-12-11T12:24:04.828Z,24.23
2023-12-11T12:29:10.996Z,19.60
2023-12-11T12:34:15.586Z,20.67
2023-12-11T12:39:22.256Z,19.20
2023-12-11T12:44:25.811Z,21.23
2023-12-11T12:49:29.260Z,18.00
2023-12-11T12:54:52.885Z,13.50
2023-12-11T12:59:56.347Z,20.67
2023-12-11T13:04:59.843Z,17.20
2023-12-11T13:10:12.007Z,19.25
2023-12-11T13:15:15.898Z,17.52
2023-12-11T13:20:21.380Z,24.02
2023-12-11T13:25:26.385Z,22.08
2023-12-11T13:30:29.867Z,25.55
2023-12-11T13:35:37.893Z,24.17
2023-12-11T13:40:42.956Z,27.90
2023-12-11T13:45:46.813Z,29.70
2023-12-11T13:50:50.325Z,27.08
2023-12-11T13:55:55.178Z,27.63
2023-12-11T14:00:58.701Z,25.95
2023-12-11T14:06:03.404Z,29.42
2023-12-11T14:11:09.618Z,23.70
2023-12-11T14:16:13.059Z,25.05
2023-12-11T14:21:18.522Z,23.75
2023-12-11T14:26:23.413Z,24.98
2023-12-11T14:31:26.851Z,23.55
2023-12-11T14:36:30.321Z,20.00
2023-12-11T14:41:35.094Z,23.38
2023-12-11T14:46:39.689Z,21.13
2023-12-11T14:51:43.200Z,23.98
2023-12-11T14:56:48.278Z,21.55
2023-12-11T15:01:51.986Z,20.42
2023-12-11T15:06:55.654Z,16.83
2023-12-11T15:12:00.538Z,16.45
2023-12-11T15:17:04.613Z,17.52
2023-12-11T15:22:08.022Z,19.73
2023-12-11T15:27:12.970Z,15.90
2023-12-11T15:32:17.120Z,17.83
2023-12-11T15:37:20.673Z,20.63
2023-12-11T15:42:25.481Z,16.35
2023-12-11T15:47:29.922Z,18.70
2023-12-11T15:52:52.283Z,16.27
2023-12-11T15:57:57.205Z,16.70
2023-12-11T16:03:00.728Z,16.08
2023-12-11T16:08:04.462Z,14.32
2023-12-11T16:13:09.355Z,19.90
2023-12-11T16:18:13.175Z,15.38
2023-12-11T16:23:16.850Z,12.90
2023-12-11T16:28:21.713Z,12.95
2023-12-11T16:33:25.498Z,11.50
2023-12-11T16:38:29.082Z,13.55
2023-12-11T16:43:33.918Z,12.48
2023-12-11T16:48:38.558Z,12.73
2023-12-11T16:53:43.097Z,11.95
2023-12-11T16:58:47.927Z,12.20
2023-12-11T17:03:51.817Z,13.48
2023-12-11T17:08:55.497Z,13.65
2023-12-11T17:14:00.271Z,12.10
2023-12-11T17:19:05.031Z,12.70
2023-12-11T17:24:11.634Z,13.63
2023-12-11T17:29:16.418Z,12.02
2023-12-11T17:34:19.937Z,12.25
2023-12-11T17:39:23.407Z,15.18
2023-12-11T17:44:28.206Z,11.07
2023-12-11T17:49:31.769Z,10.45
2023-12-11T17:54:35.255Z,12.27
2023-12-11T17:59:42.140Z,10.25
2023-12-11T18:04:45.840Z,10.23
2023-12-11T18:09:50.082Z,9.13
2023-12-11T18:14:55.046Z,8.93
2023-12-11T18:19:58.683Z,8.10
2023-12-11T18:25:02.547Z,7.75
2023-12-11T18:30:09.637Z,7.28
2023-12-11T18:35:13.451Z,9.47
2023-12-11T18:40:17.220Z,9.05
2023-12-11T18:45:23.641Z,11.82
2023-12-11T18:50:27.109Z,6.97
2023-12-11T18:55:32.659Z,8.95
2023-12-11T19:00:37.671Z,6.93
2023-12-11T19:05:41.924Z,8.40
2023-12-11T19:10:45.400Z,10.63
2023-12-11T19:15:50.216Z,8.60
2023-12-11T19:20:53.694Z,9.00
2023-12-11T19:25:57.493Z,7.93
2023-12-11T19:31:02.361Z,9.02
2023-12-11T19:36:06.915Z,8.65
2023-12-11T19:41:10.669Z,9.70
2023-12-11T19:46:15.509Z,11.88
2023-12-11T19:51:19.029Z,8.68
2023-12-11T19:56:23.002Z,10.48
2023-12-11T20:01:31.805Z,8.82
2023-12-11T20:06:35.334Z,8.48
2023-12-11T20:11:38.736Z,8.68
2023-12-11T20:16:44.297Z,9.57
2023-12-11T20:21:50.208Z,9.70
2023-12-11T20:26:54.566Z,12.15
2023-12-11T20:31:59.341Z,13.05
2023-12-11T20:37:02.819Z,11.63
2023-12-11T20:42:06.936Z,11.98
2023-12-11T20:47:11.716Z,12.35
2023-12-11T20:52:15.169Z,13.90
2023-12-11T20:57:18.576Z,13.02
2023-12-11T21:02:23.418Z,10.35
2023-12-11T21:07:26.882Z,14.32
2023-12-11T21:12:30.324Z,14.70
2023-12-11T21:17:35.414Z,13.95
2023-12-11T21:22:39.096Z,12.77
2023-12-11T21:27:42.482Z,15.45
2023-12-11T21:32:47.408Z,12.68
2023-12-11T21:37:50.871Z,14.68
2023-12-11T21:42:54.415Z,12.45
2023-12-11T21:47:59.685Z,16.63
2023-12-11T21:53:05.824Z,13.63
2023-12-11T21:58:09.290Z,13.48
2023-12-11T22:03:14.724Z,15.02
2023-12-11T22:08:18.293Z,14.07
2023-12-11T22:13:22.016Z,16.27
2023-12-11T22:18:27.112Z,13.90
2023-12-11T22:23:30.587Z,15.00
2023-12-11T22:28:34.156Z,12.75
2023-12-11T22:33:39.078Z,14.65
2023-12-11T22:38:42.489Z,12.15
2023-12-11T22:43:45.898Z,12.15
2023-12-11T22:48:50.776Z,12.05
2023-12-11T22:53:54.258Z,16.00
2023-12-11T22:58:57.667Z,13.80
2023-12-11T23:04:02.848Z,17.23
2023-12-11T23:09:06.616Z,17.75
2023-12-11T23:14:11.043Z,16.02
2023-12-11T23:19:15.956Z,16.17
2023-12-11T23:24:20.007Z,13.23
2023-12-11T23:29:23.480Z,13.73
2023-12-11T23:34:28.441Z,16.52
2023-12-11T23:39:32.911Z,11.70
2023-12-11T23:44:36.443Z,11.57
2023-12-11T23:49:41.423Z,11.20
2023-12-11T23:54:44.920Z,12.98
2023-12-11T23:59:48.295Z,13.20
